KLAF/LAF METAR and TAF weather

Enter ICAO airport designator
Station Type Date Time Source
KLAF METAR 2019/11/18 03:54 UTC NOAA

KLAF 180354Z AUTO 00000KT 8SM CLR 03/M01 A2986 RMK AO2 SLP115 T00281006


Station Type Date Time Source
KLAF Decoded METAR 2019/11/18 03:54 UTC NOAA

LAFAYETTE PURDUE UNIV AIRPORT , IN, United States (KLAF) 40-25N 86-57W 182M
Nov 17, 2019 - 10:54 PM EST / 2019.11.18 0354 UTC
Wind: Calm:0
Visibility: 8 mile(s):0
Sky conditions: clear
Temperature: 37.0 F (2.8 C)
Dew Point: 30.9 F (-0.6 C)
Relative Humidity: 78%
Pressure (altimeter): 29.86 in. Hg (1011 hPa)
ob: KLAF 180354Z AUTO 00000KT 8SM CLR 03/M01 A2986 RMK AO2 SLP115 T00281006
cycle: 4

Station Type Date Time Source
KLAF TAF 2019/11/17 18:22 UTC NOAA

TAF KLAF 171720Z 1718/1818 13005KT P6SM OVC180
FM180300 VRB03KT P6SM VCSH BKN100
FM180900 VRB03KT P6SM OVC020
FM181200 VRB04KT P6SM OVC008
FM181600 30005KT P6SM BKN008

Example: see airport list